Terminal Aerodrome Forecast
Issued by NWS

Home | Current Version | Previous Version | Text Only | Print | Product List | Glossary On
Versions: 1 2 3 4 5 6 7 8 9 10 11 12 13 14
304
FTUS43 KMPX 290111 AAA
TAFAXN
TAF AMD
KAXN 290111Z 2901/2924 30010KT P6SM VCSH BKN060
     FM290900 30013KT P6SM BKN025
     FM291300 30013G21KT P6SM BKN015 OVC025
     FM291500 21017G26KT P6SM VCSH OVC015 PROB30 2916/2920 5SM -SHRA
      BR OVC010=

USA.gov is the U.S. government's official web portal to all federal, state and local government web resources and services.